sensor_id;sensor_type;location;lat;lon;timestamp;noise_LAeq;noise_LA_min;noise_LA_max;noise_LA01;noise_LA95
72276;Laerm;61204;49.980;8.358;2023-02-24T00:01:36;40.19;35.79;48.36;;
72276;Laerm;61204;49.980;8.358;2023-02-24T00:04:07;39.39;35.56;44.12;;
72276;Laerm;61204;49.980;8.358;2023-02-24T00:06:37;40.12;35.57;46.65;;
72276;Laerm;61204;49.980;8.358;2023-02-24T00:09:21;39.07;33.97;51.77;;
72276;Laerm;61204;49.980;8.358;2023-02-24T00:11:52;38.78;34.21;44.32;;
72276;Laerm;61204;49.980;8.358;2023-02-24T00:14:23;38.51;34.12;42.84;;
72276;Laerm;61204;49.980;8.358;2023-02-24T00:16:54;39.39;34.40;47.43;;
72276;Laerm;61204;49.980;8.358;2023-02-24T00:19:23;42.04;34.88;53.49;;
72276;Laerm;61204;49.980;8.358;2023-02-24T00:21:52;38.78;34.31;44.13;;
72276;Laerm;61204;49.980;8.358;2023-02-24T00:24:22;38.78;34.00;44.25;;
72276;Laerm;61204;49.980;8.358;2023-02-24T00:26:59;41.12;35.83;48.63;;
72276;Laerm;61204;49.980;8.358;2023-02-24T00:29:28;42.23;34.48;48.97;;
72276;Laerm;61204;49.980;8.358;2023-02-24T00:31:56;38.93;34.68;43.93;;
72276;Laerm;61204;49.980;8.358;2023-02-24T00:34:29;39.40;35.22;57.58;;
72276;Laerm;61204;49.980;8.358;2023-02-24T00:36:57;38.96;34.56;43.55;;
72276;Laerm;61204;49.980;8.358;2023-02-24T00:39:23;38.98;33.41;43.80;;
72276;Laerm;61204;49.980;8.358;2023-02-24T00:41:53;38.37;34.01;43.15;;
72276;Laerm;61204;49.980;8.358;2023-02-24T00:44:22;36.85;32.86;42.71;;
72276;Laerm;61204;49.980;8.358;2023-02-24T00:46:48;35.96;32.94;58.98;;
72276;Laerm;61204;49.980;8.358;2023-02-24T00:49:17;37.16;33.26;49.87;;
72276;Laerm;61204;49.980;8.358;2023-02-24T00:51:48;42.74;33.93;55.79;;
72276;Laerm;61204;49.980;8.358;2023-02-24T00:54:15;38.82;35.25;56.10;;
72276;Laerm;61204;49.980;8.358;2023-02-24T00:56:43;37.68;32.47;43.44;;
72276;Laerm;61204;49.980;8.358;2023-02-24T00:59:11;41.18;35.57;48.76;;
72276;Laerm;61204;49.980;8.358;2023-02-24T01:01:38;43.38;35.50;55.13;;
72276;Laerm;61204;49.980;8.358;2023-02-24T01:04:05;44.70;36.17;56.47;;
72276;Laerm;61204;49.980;8.358;2023-02-24T01:06:41;41.10;35.09;46.96;;
72276;Laerm;61204;49.980;8.358;2023-02-24T01:09:11;42.06;35.50;48.96;;
72276;Laerm;61204;49.980;8.358;2023-02-24T01:11:38;40.06;34.02;45.09;;
72276;Laerm;61204;49.980;8.358;2023-02-24T01:14:28;46.09;35.55;59.95;;
72276;Laerm;61204;49.980;8.358;2023-02-24T01:16:55;45.48;39.12;58.53;;
72276;Laerm;61204;49.980;8.358;2023-02-24T01:19:30;42.48;37.08;47.01;;
72276;Laerm;61204;49.980;8.358;2023-02-24T01:22:03;41.48;35.74;48.44;;
72276;Laerm;61204;49.980;8.358;2023-02-24T01:24:38;41.26;37.16;49.29;;
72276;Laerm;61204;49.980;8.358;2023-02-24T01:27:05;41.41;36.17;45.44;;
72276;Laerm;61204;49.980;8.358;2023-02-24T01:29:31;43.83;36.27;54.77;;
72276;Laerm;61204;49.980;8.358;2023-02-24T01:31:57;40.67;36.22;53.70;;
72276;Laerm;61204;49.980;8.358;2023-02-24T01:34:24;39.20;32.81;44.08;;
72276;Laerm;61204;49.980;8.358;2023-02-24T01:36:49;39.98;35.20;46.16;;
72276;Laerm;61204;49.980;8.358;2023-02-24T01:39:15;41.75;36.24;47.38;;
72276;Laerm;61204;49.980;8.358;2023-02-24T01:41:44;40.19;35.25;46.92;;
72276;Laerm;61204;49.980;8.358;2023-02-24T01:46:44;40.89;33.52;46.23;;
72276;Laerm;61204;49.980;8.358;2023-02-24T01:49:45;43.22;36.93;55.21;;
72276;Laerm;61204;49.980;8.358;2023-02-24T01:52:28;44.66;38.46;55.29;;
72276;Laerm;61204;49.980;8.358;2023-02-24T01:55:05;44.47;38.56;57.74;;
72276;Laerm;61204;49.980;8.358;2023-02-24T01:57:34;45.59;39.46;53.21;;
72276;Laerm;61204;49.980;8.358;2023-02-24T02:00:05;43.22;37.09;48.55;;
72276;Laerm;61204;49.980;8.358;2023-02-24T02:02:49;43.87;38.51;49.60;;
72276;Laerm;61204;49.980;8.358;2023-02-24T02:05:17;41.89;36.30;49.36;;
72276;Laerm;61204;49.980;8.358;2023-02-24T02:07:44;42.95;36.60;50.14;;
72276;Laerm;61204;49.980;8.358;2023-02-24T02:10:13;42.80;34.25;49.19;;
72276;Laerm;61204;49.980;8.358;2023-02-24T02:12:42;44.47;39.06;50.10;;
72276;Laerm;61204;49.980;8.358;2023-02-24T02:15:15;44.37;38.23;53.18;;
72276;Laerm;61204;49.980;8.358;2023-02-24T02:18:12;43.75;37.90;51.51;;
72276;Laerm;61204;49.980;8.358;2023-02-24T02:21:17;42.89;36.70;52.33;;
72276;Laerm;61204;49.980;8.358;2023-02-24T02:23:58;44.25;36.88;54.30;;
72276;Laerm;61204;49.980;8.358;2023-02-24T02:40:36;43.39;39.43;62.35;;
72276;Laerm;61204;49.980;8.358;2023-02-24T02:43:30;43.89;37.65;63.84;;
72276;Laerm;61204;49.980;8.358;2023-02-24T02:46:13;44.47;36.45;53.38;;
72276;Laerm;61204;49.980;8.358;2023-02-24T02:48:57;42.95;37.20;54.61;;
72276;Laerm;61204;49.980;8.358;2023-02-24T02:51:31;41.31;35.08;48.31;;
72276;Laerm;61204;49.980;8.358;2023-02-24T02:56:55;41.90;36.12;47.76;;
72276;Laerm;61204;49.980;8.358;2023-02-24T02:59:24;40.76;35.89;48.19;;
72276;Laerm;61204;49.980;8.358;2023-02-24T03:01:55;41.26;35.65;48.17;;
72276;Laerm;61204;49.980;8.358;2023-02-24T03:04:40;43.10;38.47;49.73;;
72276;Laerm;61204;49.980;8.358;2023-02-24T03:07:11;42.70;35.87;49.07;;
72276;Laerm;61204;49.980;8.358;2023-02-24T03:09:42;46.93;38.14;58.61;;
72276;Laerm;61204;49.980;8.358;2023-02-24T03:12:13;44.61;38.43;51.24;;
72276;Laerm;61204;49.980;8.358;2023-02-24T03:14:49;45.42;39.65;49.92;;
72276;Laerm;61204;49.980;8.358;2023-02-24T03:17:22;44.67;38.00;49.86;;
72276;Laerm;61204;49.980;8.358;2023-02-24T03:19:57;42.90;38.20;51.09;;
72276;Laerm;61204;49.980;8.358;2023-02-24T03:22:45;51.98;38.10;68.25;;
72276;Laerm;61204;49.980;8.358;2023-02-24T03:25:21;42.61;36.62;48.91;;
72276;Laerm;61204;49.980;8.358;2023-02-24T03:27:54;44.31;38.16;50.63;;
72276;Laerm;61204;49.980;8.358;2023-02-24T03:30:35;45.88;37.09;53.41;;
72276;Laerm;61204;49.980;8.358;2023-02-24T03:35:51;47.76;39.21;59.89;;
72276;Laerm;61204;49.980;8.358;2023-02-24T03:38:20;43.57;38.09;48.92;;
72276;Laerm;61204;49.980;8.358;2023-02-24T03:40:48;42.66;37.72;52.34;;
72276;Laerm;61204;49.980;8.358;2023-02-24T03:43:23;41.17;36.82;47.27;;
72276;Laerm;61204;49.980;8.358;2023-02-24T03:45:50;41.91;38.07;46.29;;
72276;Laerm;61204;49.980;8.358;2023-02-24T03:48:17;42.25;38.17;46.90;;
72276;Laerm;61204;49.980;8.358;2023-02-24T03:50:43;41.27;36.42;56.32;;
72276;Laerm;61204;49.980;8.358;2023-02-24T03:56:18;45.50;36.79;56.91;;
72276;Laerm;61204;49.980;8.358;2023-02-24T04:02:02;45.45;40.82;50.39;;
72276;Laerm;61204;49.980;8.358;2023-02-24T04:04:41;43.61;38.91;48.60;;
72276;Laerm;61204;49.980;8.358;2023-02-24T04:13:00;46.93;39.99;58.63;;
72276;Laerm;61204;49.980;8.358;2023-02-24T04:18:27;45.27;40.77;50.36;;
72276;Laerm;61204;49.980;8.358;2023-02-24T04:20:58;47.60;41.05;53.23;;
72276;Laerm;61204;49.980;8.358;2023-02-24T04:23:31;49.38;45.26;54.19;;
72276;Laerm;61204;49.980;8.358;2023-02-24T04:25:59;48.38;42.46;57.95;;
72276;Laerm;61204;49.980;8.358;2023-02-24T04:28:27;48.11;42.74;53.94;;
72276;Laerm;61204;49.980;8.358;2023-02-24T04:31:00;50.18;44.21;60.11;;
72276;Laerm;61204;49.980;8.358;2023-02-24T04:33:31;49.27;44.09;59.91;;
72276;Laerm;61204;49.980;8.358;2023-02-24T04:35:58;52.75;45.47;63.55;;
72276;Laerm;61204;49.980;8.358;2023-02-24T04:38:24;50.23;45.51;60.21;;
72276;Laerm;61204;49.980;8.358;2023-02-24T04:40:52;49.98;45.06;61.82;;
72276;Laerm;61204;49.980;8.358;2023-02-24T04:43:17;54.02;45.86;69.20;;
72276;Laerm;61204;49.980;8.358;2023-02-24T04:45:45;51.10;44.74;61.59;;
72276;Laerm;61204;49.980;8.358;2023-02-24T04:48:11;49.53;44.37;60.29;;
72276;Laerm;61204;49.980;8.358;2023-02-24T04:50:42;50.26;43.69;58.20;;
72276;Laerm;61204;49.980;8.358;2023-02-24T04:53:14;49.39;45.75;55.71;;
72276;Laerm;61204;49.980;8.358;2023-02-24T04:55:44;50.79;45.28;71.16;;
72276;Laerm;61204;49.980;8.358;2023-02-24T04:58:19;49.28;44.78;57.97;;
72276;Laerm;61204;49.980;8.358;2023-02-24T05:00:51;52.80;45.79;64.00;;
72276;Laerm;61204;49.980;8.358;2023-02-24T05:03:19;51.50;47.98;61.05;;
72276;Laerm;61204;49.980;8.358;2023-02-24T05:05:57;52.17;48.14;58.95;;
72276;Laerm;61204;49.980;8.358;2023-02-24T05:08:28;52.34;48.38;63.31;;
72276;Laerm;61204;49.980;8.358;2023-02-24T05:10:55;51.41;47.41;59.05;;
72276;Laerm;61204;49.980;8.358;2023-02-24T05:13:29;52.62;48.16;60.96;;
72276;Laerm;61204;49.980;8.358;2023-02-24T05:16:04;53.06;48.37;57.81;;
72276;Laerm;61204;49.980;8.358;2023-02-24T05:18:31;52.34;47.67;59.65;;
72276;Laerm;61204;49.980;8.358;2023-02-24T05:21:08;50.06;45.73;59.18;;
72276;Laerm;61204;49.980;8.358;2023-02-24T05:23:54;49.92;46.11;53.68;;
72276;Laerm;61204;49.980;8.358;2023-02-24T05:26:22;52.14;48.37;57.69;;
72276;Laerm;61204;49.980;8.358;2023-02-24T05:28:53;52.88;48.01;61.20;;
72276;Laerm;61204;49.980;8.358;2023-02-24T05:31:26;54.33;47.48;67.29;;
72276;Laerm;61204;49.980;8.358;2023-02-24T05:33:58;56.04;49.09;68.35;;
72276;Laerm;61204;49.980;8.358;2023-02-24T05:36:28;55.98;49.69;70.10;;
72276;Laerm;61204;49.980;8.358;2023-02-24T05:38:55;57.24;48.99;71.27;;
72276;Laerm;61204;49.980;8.358;2023-02-24T05:41:31;55.56;49.11;66.39;;
72276;Laerm;61204;49.980;8.358;2023-02-24T05:44:07;53.53;48.88;66.52;;
72276;Laerm;61204;49.980;8.358;2023-02-24T05:46:39;52.72;48.52;57.50;;
72276;Laerm;61204;49.980;8.358;2023-02-24T05:49:11;53.32;48.98;64.05;;
72276;Laerm;61204;49.980;8.358;2023-02-24T05:51:39;54.04;48.07;63.20;;
72276;Laerm;61204;49.980;8.358;2023-02-24T05:54:12;51.84;47.95;63.17;;
72276;Laerm;61204;49.980;8.358;2023-02-24T05:56:40;55.89;48.31;71.18;;
72276;Laerm;61204;49.980;8.358;2023-02-24T05:59:10;51.93;47.96;62.25;;
72276;Laerm;61204;49.980;8.358;2023-02-24T06:01:39;53.33;47.89;67.84;;
72276;Laerm;61204;49.980;8.358;2023-02-24T06:04:10;52.81;46.41;65.57;;
72276;Laerm;61204;49.980;8.358;2023-02-24T06:06:47;49.87;45.94;55.40;;
72276;Laerm;61204;49.980;8.358;2023-02-24T06:09:20;51.83;46.85;59.43;;
72276;Laerm;61204;49.980;8.358;2023-02-24T06:11:47;52.34;48.21;65.94;;
72276;Laerm;61204;49.980;8.358;2023-02-24T06:14:14;51.35;46.41;61.15;;
72276;Laerm;61204;49.980;8.358;2023-02-24T06:16:41;52.19;47.39;63.15;;
72276;Laerm;61204;49.980;8.358;2023-02-24T06:19:10;53.48;46.84;66.92;;
72276;Laerm;61204;49.980;8.358;2023-02-24T06:21:41;55.03;47.91;69.63;;
72276;Laerm;61204;49.980;8.358;2023-02-24T06:24:12;53.39;48.91;63.20;;
72276;Laerm;61204;49.980;8.358;2023-02-24T06:26:41;53.94;48.44;61.61;;
72276;Laerm;61204;49.980;8.358;2023-02-24T06:29:12;53.21;48.58;62.52;;
72276;Laerm;61204;49.980;8.358;2023-02-24T06:31:39;51.93;48.15;61.80;;
72276;Laerm;61204;49.980;8.358;2023-02-24T06:34:09;52.09;46.67;61.77;;
72276;Laerm;61204;49.980;8.358;2023-02-24T06:36:38;51.90;46.49;64.18;;
72276;Laerm;61204;49.980;8.358;2023-02-24T06:39:05;53.86;47.54;62.70;;
72276;Laerm;61204;49.980;8.358;2023-02-24T06:41:37;52.89;48.27;68.21;;
72276;Laerm;61204;49.980;8.358;2023-02-24T06:44:03;52.33;46.51;62.02;;
72276;Laerm;61204;49.980;8.358;2023-02-24T06:46:28;54.49;48.58;64.46;;
72276;Laerm;61204;49.980;8.358;2023-02-24T06:48:55;55.43;48.66;66.00;;
72276;Laerm;61204;49.980;8.358;2023-02-24T06:51:22;55.22;49.54;64.38;;
72276;Laerm;61204;49.980;8.358;2023-02-24T06:53:50;54.57;49.09;63.18;;
72276;Laerm;61204;49.980;8.358;2023-02-24T06:56:17;54.12;48.25;64.58;;
72276;Laerm;61204;49.980;8.358;2023-02-24T06:58:51;50.95;47.14;60.78;;
72276;Laerm;61204;49.980;8.358;2023-02-24T07:01:23;52.34;46.45;62.35;;
72276;Laerm;61204;49.980;8.358;2023-02-24T07:03:52;53.70;46.30;65.82;;
72276;Laerm;61204;49.980;8.358;2023-02-24T07:06:39;56.97;46.65;77.45;;
72276;Laerm;61204;49.980;8.358;2023-02-24T07:09:12;53.64;46.24;66.58;;
72276;Laerm;61204;49.980;8.358;2023-02-24T07:11:41;54.42;47.91;65.24;;
72276;Laerm;61204;49.980;8.358;2023-02-24T07:14:09;52.71;46.80;61.75;;
72276;Laerm;61204;49.980;8.358;2023-02-24T07:16:36;53.08;45.77;63.71;;
72276;Laerm;61204;49.980;8.358;2023-02-24T07:19:10;53.20;44.76;66.84;;
72276;Laerm;61204;49.980;8.358;2023-02-24T07:21:43;54.39;45.80;67.76;;
72276;Laerm;61204;49.980;8.358;2023-02-24T07:24:16;52.20;44.82;67.08;;
72276;Laerm;61204;49.980;8.358;2023-02-24T07:27:07;47.64;43.08;58.37;;
72276;Laerm;61204;49.980;8.358;2023-02-24T07:29:36;50.59;45.35;59.01;;
72276;Laerm;61204;49.980;8.358;2023-02-24T07:32:05;50.95;46.64;60.00;;
72276;Laerm;61204;49.980;8.358;2023-02-24T07:34:33;51.19;46.23;60.76;;
72276;Laerm;61204;49.980;8.358;2023-02-24T07:36:59;52.78;44.39;64.79;;
72276;Laerm;61204;49.980;8.358;2023-02-24T07:39:30;47.63;43.24;56.93;;
72276;Laerm;61204;49.980;8.358;2023-02-24T07:41:57;49.72;42.67;61.28;;
72276;Laerm;61204;49.980;8.358;2023-02-24T07:44:23;50.17;43.39;61.55;;
72276;Laerm;61204;49.980;8.358;2023-02-24T07:46:50;50.35;44.24;63.13;;
72276;Laerm;61204;49.980;8.358;2023-02-24T07:49:22;49.23;43.62;63.83;;
72276;Laerm;61204;49.980;8.358;2023-02-24T07:51:52;49.66;43.30;61.66;;
72276;Laerm;61204;49.980;8.358;2023-02-24T07:54:24;50.80;45.63;60.40;;
72276;Laerm;61204;49.980;8.358;2023-02-24T07:56:50;50.88;45.00;59.38;;
72276;Laerm;61204;49.980;8.358;2023-02-24T07:59:29;52.33;45.88;61.93;;
72276;Laerm;61204;49.980;8.358;2023-02-24T08:01:55;54.89;47.85;65.67;;
72276;Laerm;61204;49.980;8.358;2023-02-24T08:04:26;54.60;48.83;64.41;;
72276;Laerm;61204;49.980;8.358;2023-02-24T08:06:52;52.62;48.34;60.37;;
72276;Laerm;61204;49.980;8.358;2023-02-24T08:09:30;54.17;46.41;69.10;;
72276;Laerm;61204;49.980;8.358;2023-02-24T08:12:21;53.87;47.22;63.53;;
72276;Laerm;61204;49.980;8.358;2023-02-24T08:14:52;52.62;46.07;61.57;;
72276;Laerm;61204;49.980;8.358;2023-02-24T08:17:24;51.77;46.16;62.28;;
72276;Laerm;61204;49.980;8.358;2023-02-24T08:19:52;50.26;45.32;56.18;;
72276;Laerm;61204;49.980;8.358;2023-02-24T08:22:38;52.66;46.54;60.98;;
72276;Laerm;61204;49.980;8.358;2023-02-24T08:25:09;50.82;45.85;57.68;;
72276;Laerm;61204;49.980;8.358;2023-02-24T08:27:43;51.61;45.01;60.60;;
72276;Laerm;61204;49.980;8.358;2023-02-24T08:30:11;51.97;45.45;65.56;;
72276;Laerm;61204;49.980;8.358;2023-02-24T08:32:53;50.79;44.58;60.98;;
72276;Laerm;61204;49.980;8.358;2023-02-24T08:35:33;50.62;46.12;67.04;;
72276;Laerm;61204;49.980;8.358;2023-02-24T08:38:20;50.51;46.61;60.50;;
72276;Laerm;61204;49.980;8.358;2023-02-24T08:40:51;51.14;45.26;64.65;;
72276;Laerm;61204;49.980;8.358;2023-02-24T08:43:29;53.10;45.99;68.94;;
72276;Laerm;61204;49.980;8.358;2023-02-24T08:48:42;53.26;47.92;61.73;;
72276;Laerm;61204;49.980;8.358;2023-02-24T08:54:16;51.76;46.46;58.72;;
72276;Laerm;61204;49.980;8.358;2023-02-24T08:56:46;51.46;44.61;61.44;;
72276;Laerm;61204;49.980;8.358;2023-02-24T08:59:22;50.67;45.60;60.81;;
72276;Laerm;61204;49.980;8.358;2023-02-24T09:02:20;52.36;46.53;63.84;;
72276;Laerm;61204;49.980;8.358;2023-02-24T09:05:01;52.75;47.44;64.97;;
72276;Laerm;61204;49.980;8.358;2023-02-24T09:07:30;52.19;47.42;64.28;;
72276;Laerm;61204;49.980;8.358;2023-02-24T09:10:01;52.34;47.03;63.90;;
72276;Laerm;61204;49.980;8.358;2023-02-24T09:12:29;55.05;47.73;68.91;;
72276;Laerm;61204;49.980;8.358;2023-02-24T09:15:01;54.16;47.80;65.86;;
72276;Laerm;61204;49.980;8.358;2023-02-24T09:17:30;52.94;46.71;63.02;;
72276;Laerm;61204;49.980;8.358;2023-02-24T09:20:14;52.02;45.13;62.55;;
72276;Laerm;61204;49.980;8.358;2023-02-24T09:22:59;52.70;47.50;61.15;;
72276;Laerm;61204;49.980;8.358;2023-02-24T09:25:36;61.12;49.86;77.36;;
72276;Laerm;61204;49.980;8.358;2023-02-24T09:28:15;56.32;48.14;72.75;;
72276;Laerm;61204;49.980;8.358;2023-02-24T09:30:47;53.77;47.37;74.58;;
72276;Laerm;61204;49.980;8.358;2023-02-24T09:33:27;50.95;46.38;68.37;;
72276;Laerm;61204;49.980;8.358;2023-02-24T09:38:40;51.22;44.91;60.35;;
72276;Laerm;61204;49.980;8.358;2023-02-24T09:44:43;51.35;44.96;61.89;;
72276;Laerm;61204;49.980;8.358;2023-02-24T09:50:27;50.81;44.28;61.24;;
72276;Laerm;61204;49.980;8.358;2023-02-24T09:53:15;51.45;45.51;63.91;;
72276;Laerm;61204;49.980;8.358;2023-02-24T09:58:51;51.72;45.77;61.48;;
72276;Laerm;61204;49.980;8.358;2023-02-24T10:01:55;53.42;47.26;65.56;;
72276;Laerm;61204;49.980;8.358;2023-02-24T10:07:30;51.80;46.13;59.05;;
72276;Laerm;61204;49.980;8.358;2023-02-24T10:10:13;52.39;48.10;60.63;;
72276;Laerm;61204;49.980;8.358;2023-02-24T10:12:51;54.42;48.70;67.94;;
72276;Laerm;61204;49.980;8.358;2023-02-24T10:15:22;51.96;47.65;59.94;;
72276;Laerm;61204;49.980;8.358;2023-02-24T10:18:59;52.61;47.56;63.88;;
72276;Laerm;61204;49.980;8.358;2023-02-24T10:24:48;51.44;44.66;61.28;;
72276;Laerm;61204;49.980;8.358;2023-02-24T10:27:57;54.65;45.78;70.06;;
72276;Laerm;61204;49.980;8.358;2023-02-24T10:31:08;53.49;45.45;67.55;;
72276;Laerm;61204;49.980;8.358;2023-02-24T10:33:53;53.24;47.63;62.20;;
72276;Laerm;61204;49.980;8.358;2023-02-24T10:36:23;51.29;46.13;56.87;;
72276;Laerm;61204;49.980;8.358;2023-02-24T10:39:19;52.47;46.86;66.21;;
72276;Laerm;61204;49.980;8.358;2023-02-24T10:41:57;50.62;44.89;60.27;;
72276;Laerm;61204;49.980;8.358;2023-02-24T10:44:27;52.74;45.96;63.08;;
72276;Laerm;61204;49.980;8.358;2023-02-24T10:47:09;51.93;46.57;60.03;;
72276;Laerm;61204;49.980;8.358;2023-02-24T10:49:56;52.88;46.11;66.60;;
72276;Laerm;61204;49.980;8.358;2023-02-24T10:52:32;53.54;47.82;66.29;;
72276;Laerm;61204;49.980;8.358;2023-02-24T10:55:40;52.83;47.35;61.14;;
72276;Laerm;61204;49.980;8.358;2023-02-24T10:58:29;52.96;47.48;64.18;;
72276;Laerm;61204;49.980;8.358;2023-02-24T11:01:29;53.61;48.28;63.17;;
72276;Laerm;61204;49.980;8.358;2023-02-24T11:04:20;53.04;47.67;66.21;;
72276;Laerm;61204;49.980;8.358;2023-02-24T11:07:03;53.76;47.23;69.04;;
72276;Laerm;61204;49.980;8.358;2023-02-24T11:09:39;54.69;48.20;65.47;;
72276;Laerm;61204;49.980;8.358;2023-02-24T11:12:23;49.72;45.59;59.40;;
72276;Laerm;61204;49.980;8.358;2023-02-24T11:15:21;52.90;46.26;65.40;;
72276;Laerm;61204;49.980;8.358;2023-02-24T11:18:06;52.36;47.06;61.15;;
72276;Laerm;61204;49.980;8.358;2023-02-24T11:21:04;52.75;47.37;66.57;;
72276;Laerm;61204;49.980;8.358;2023-02-24T11:23:41;52.22;48.17;61.40;;
72276;Laerm;61204;49.980;8.358;2023-02-24T11:26:21;52.53;48.49;58.65;;
72276;Laerm;61204;49.980;8.358;2023-02-24T11:34:43;52.16;46.43;66.05;;
72276;Laerm;61204;49.980;8.358;2023-02-24T11:37:37;53.08;48.58;60.24;;
72276;Laerm;61204;49.980;8.358;2023-02-24T11:40:14;54.27;50.06;59.81;;
72276;Laerm;61204;49.980;8.358;2023-02-24T11:42:55;54.62;49.19;62.31;;
72276;Laerm;61204;49.980;8.358;2023-02-24T11:48:05;54.44;49.36;61.30;;
72276;Laerm;61204;49.980;8.358;2023-02-24T11:50:45;54.55;50.83;62.74;;
72276;Laerm;61204;49.980;8.358;2023-02-24T11:56:14;55.51;49.26;63.13;;
72276;Laerm;61204;49.980;8.358;2023-02-24T11:59:00;54.57;48.66;64.46;;
72276;Laerm;61204;49.980;8.358;2023-02-24T12:01:46;56.53;50.06;73.38;;
72276;Laerm;61204;49.980;8.358;2023-02-24T12:07:24;55.10;50.60;62.82;;
72276;Laerm;61204;49.980;8.358;2023-02-24T12:12:47;54.25;49.65;68.71;;
72276;Laerm;61204;49.980;8.358;2023-02-24T12:15:29;54.43;49.02;66.09;;
72276;Laerm;61204;49.980;8.358;2023-02-24T12:18:10;56.00;50.01;71.39;;
72276;Laerm;61204;49.980;8.358;2023-02-24T12:20:57;58.02;51.73;78.06;;
72276;Laerm;61204;49.980;8.358;2023-02-24T12:23:43;54.32;49.11;60.73;;
72276;Laerm;61204;49.980;8.358;2023-02-24T12:26:27;52.50;47.76;61.55;;
72276;Laerm;61204;49.980;8.358;2023-02-24T12:29:57;51.78;45.74;65.10;;
72276;Laerm;61204;49.980;8.358;2023-02-24T12:35:47;51.61;46.72;61.84;;
72276;Laerm;61204;49.980;8.358;2023-02-24T12:46:36;54.07;48.48;69.48;;
72276;Laerm;61204;49.980;8.358;2023-02-24T12:52:19;53.25;47.79;67.79;;
72276;Laerm;61204;49.980;8.358;2023-02-24T12:55:14;52.77;47.42;69.36;;
72276;Laerm;61204;49.980;8.358;2023-02-24T13:00:50;53.05;48.43;61.20;;
72276;Laerm;61204;49.980;8.358;2023-02-24T13:03:58;53.90;48.11;68.75;;
72276;Laerm;61204;49.980;8.358;2023-02-24T13:14:56;52.30;47.34;62.50;;
72276;Laerm;61204;49.980;8.358;2023-02-24T13:17:25;51.22;46.61;58.43;;
72276;Laerm;61204;49.980;8.358;2023-02-24T13:19:55;52.17;46.95;66.59;;
72276;Laerm;61204;49.980;8.358;2023-02-24T13:22:29;52.33;46.76;64.04;;
72276;Laerm;61204;49.980;8.358;2023-02-24T13:25:16;52.87;47.53;67.54;;
72276;Laerm;61204;49.980;8.358;2023-02-24T13:27:43;53.08;47.97;65.37;;
72276;Laerm;61204;49.980;8.358;2023-02-24T13:36:03;52.42;47.42;64.59;;
72276;Laerm;61204;49.980;8.358;2023-02-24T13:41:19;53.38;48.20;65.91;;
72276;Laerm;61204;49.980;8.358;2023-02-24T13:44:26;52.55;48.45;64.23;;
72276;Laerm;61204;49.980;8.358;2023-02-24T13:50:19;53.20;48.08;63.58;;
72276;Laerm;61204;49.980;8.358;2023-02-24T13:56:16;53.07;47.74;65.93;;
72276;Laerm;61204;49.980;8.358;2023-02-24T13:59:10;54.42;49.10;70.73;;
72276;Laerm;61204;49.980;8.358;2023-02-24T14:02:01;55.84;49.08;73.53;;
72276;Laerm;61204;49.980;8.358;2023-02-24T14:04:33;54.58;49.12;61.44;;
72276;Laerm;61204;49.980;8.358;2023-02-24T14:07:08;51.20;45.25;70.05;;
72276;Laerm;61204;49.980;8.358;2023-02-24T14:10:32;48.54;44.76;55.14;;
72276;Laerm;61204;49.980;8.358;2023-02-24T14:12:36;50.95;45.81;61.28;;
72276;Laerm;61204;49.980;8.358;2023-02-24T14:15:03;49.27;44.86;56.68;;
72276;Laerm;61204;49.980;8.358;2023-02-24T14:17:35;49.91;45.30;56.80;;
72276;Laerm;61204;49.980;8.358;2023-02-24T14:22:54;50.15;45.38;59.94;;
72276;Laerm;61204;49.980;8.358;2023-02-24T14:25:22;52.42;45.60;59.66;;
72276;Laerm;61204;49.980;8.358;2023-02-24T14:27:50;49.49;44.86;60.62;;
72276;Laerm;61204;49.980;8.358;2023-02-24T14:30:37;50.52;45.36;63.13;;
72276;Laerm;61204;49.980;8.358;2023-02-24T14:33:06;48.70;44.26;52.59;;
72276;Laerm;61204;49.980;8.358;2023-02-24T14:35:40;50.91;46.23;65.03;;
72276;Laerm;61204;49.980;8.358;2023-02-24T14:38:33;49.80;45.58;60.25;;
72276;Laerm;61204;49.980;8.358;2023-02-24T14:41:01;51.24;46.89;64.27;;
72276;Laerm;61204;49.980;8.358;2023-02-24T14:43:27;50.15;46.29;57.56;;
72276;Laerm;61204;49.980;8.358;2023-02-24T14:45:54;50.53;46.03;57.05;;
72276;Laerm;61204;49.980;8.358;2023-02-24T14:48:28;50.61;45.91;58.76;;
72276;Laerm;61204;49.980;8.358;2023-02-24T14:51:04;50.76;46.45;57.32;;
72276;Laerm;61204;49.980;8.358;2023-02-24T14:53:39;52.60;46.84;60.33;;
72276;Laerm;61204;49.980;8.358;2023-02-24T14:56:11;56.71;47.20;75.39;;
72276;Laerm;61204;49.980;8.358;2023-02-24T15:01:26;51.60;45.31;62.73;;
72276;Laerm;61204;49.980;8.358;2023-02-24T15:04:08;49.55;45.08;61.25;;
72276;Laerm;61204;49.980;8.358;2023-02-24T15:06:35;50.78;45.76;57.63;;
72276;Laerm;61204;49.980;8.358;2023-02-24T15:09:33;52.59;47.21;63.81;;
72276;Laerm;61204;49.980;8.358;2023-02-24T15:12:19;49.18;45.69;59.48;;
72276;Laerm;61204;49.980;8.358;2023-02-24T15:15:05;49.98;45.88;59.40;;
72276;Laerm;61204;49.980;8.358;2023-02-24T15:17:40;51.40;46.39;64.06;;
72276;Laerm;61204;49.980;8.358;2023-02-24T15:20:33;51.77;46.52;60.22;;
72276;Laerm;61204;49.980;8.358;2023-02-24T15:22:59;50.70;45.33;60.40;;
72276;Laerm;61204;49.980;8.358;2023-02-24T15:25:49;50.91;45.51;58.21;;
72276;Laerm;61204;49.980;8.358;2023-02-24T15:28:26;51.65;45.28;62.36;;
72276;Laerm;61204;49.980;8.358;2023-02-24T15:31:15;51.95;44.63;63.52;;
72276;Laerm;61204;49.980;8.358;2023-02-24T15:33:45;51.25;45.56;64.12;;
72276;Laerm;61204;49.980;8.358;2023-02-24T15:36:20;51.21;46.52;59.53;;
72276;Laerm;61204;49.980;8.358;2023-02-24T15:38:52;50.04;45.53;56.51;;
72276;Laerm;61204;49.980;8.358;2023-02-24T15:41:19;51.56;44.74;59.06;;
72276;Laerm;61204;49.980;8.358;2023-02-24T15:48:47;51.08;45.63;62.90;;
72276;Laerm;61204;49.980;8.358;2023-02-24T15:51:36;53.23;46.40;63.14;;
72276;Laerm;61204;49.980;8.358;2023-02-24T15:54:07;54.11;46.62;70.94;;
72276;Laerm;61204;49.980;8.358;2023-02-24T15:56:35;52.90;46.55;72.75;;
72276;Laerm;61204;49.980;8.358;2023-02-24T15:59:01;50.24;45.56;63.65;;
72276;Laerm;61204;49.980;8.358;2023-02-24T16:01:32;51.82;45.54;65.07;;
72276;Laerm;61204;49.980;8.358;2023-02-24T16:03:59;52.82;47.65;71.78;;
72276;Laerm;61204;49.980;8.358;2023-02-24T16:06:26;51.67;44.38;69.90;;
72276;Laerm;61204;49.980;8.358;2023-02-24T16:08:55;53.14;46.53;65.03;;
72276;Laerm;61204;49.980;8.358;2023-02-24T16:11:26;52.31;47.24;68.55;;
72276;Laerm;61204;49.980;8.358;2023-02-24T16:13:57;51.31;46.91;66.73;;
72276;Laerm;61204;49.980;8.358;2023-02-24T16:16:25;51.39;46.33;64.63;;
72276;Laerm;61204;49.980;8.358;2023-02-24T16:18:52;52.14;46.48;62.92;;
72276;Laerm;61204;49.980;8.358;2023-02-24T16:21:18;50.93;46.43;57.47;;
72276;Laerm;61204;49.980;8.358;2023-02-24T16:23:43;50.91;45.41;59.39;;
72276;Laerm;61204;49.980;8.358;2023-02-24T16:26:19;49.46;43.93;58.70;;
72276;Laerm;61204;49.980;8.358;2023-02-24T16:28:54;50.51;46.51;58.93;;
72276;Laerm;61204;49.980;8.358;2023-02-24T16:31:24;52.82;46.61;66.20;;
72276;Laerm;61204;49.980;8.358;2023-02-24T16:33:51;54.07;45.44;66.00;;
72276;Laerm;61204;49.980;8.358;2023-02-24T16:36:17;52.06;44.62;61.80;;
72276;Laerm;61204;49.980;8.358;2023-02-24T16:38:43;51.20;46.41;63.21;;